sensor_id;sensor_type;location;lat;lon;timestamp;temperature;humidity
3186;DHT22;1604;53.700;10.252;2023-04-10T00:00:21;5.30;99.90
3186;DHT22;1604;53.700;10.252;2023-04-10T00:03:23;5.40;99.90
3186;DHT22;1604;53.700;10.252;2023-04-10T00:06:28;5.40;99.90
3186;DHT22;1604;53.700;10.252;2023-04-10T00:09:31;5.40;99.90
3186;DHT22;1604;53.700;10.252;2023-04-10T00:12:35;5.40;99.90
3186;DHT22;1604;53.700;10.252;2023-04-10T00:15:37;5.40;99.90
3186;DHT22;1604;53.700;10.252;2023-04-10T00:18:39;5.40;99.90
3186;DHT22;1604;53.700;10.252;2023-04-10T00:21:42;5.50;99.90
3186;DHT22;1604;53.700;10.252;2023-04-10T00:24:44;5.50;99.90
3186;DHT22;1604;53.700;10.252;2023-04-10T00:27:46;5.50;99.90
3186;DHT22;1604;53.700;10.252;2023-04-10T00:30:48;5.50;99.90
3186;DHT22;1604;53.700;10.252;2023-04-10T00:33:50;5.50;99.90
3186;DHT22;1604;53.700;10.252;2023-04-10T00:36:53;5.50;99.90
3186;DHT22;1604;53.700;10.252;2023-04-10T00:39:55;5.50;99.90
3186;DHT22;1604;53.700;10.252;2023-04-10T00:42:57;5.50;99.90
3186;DHT22;1604;53.700;10.252;2023-04-10T00:45:59;5.50;99.90
3186;DHT22;1604;53.700;10.252;2023-04-10T00:49:01;5.50;99.90
3186;DHT22;1604;53.700;10.252;2023-04-10T00:52:04;5.50;99.90
3186;DHT22;1604;53.700;10.252;2023-04-10T00:55:07;5.50;99.90
3186;DHT22;1604;53.700;10.252;2023-04-10T00:58:09;5.50;99.90
3186;DHT22;1604;53.700;10.252;2023-04-10T01:01:14;5.50;99.90
3186;DHT22;1604;53.700;10.252;2023-04-10T01:04:16;5.50;99.90
3186;DHT22;1604;53.700;10.252;2023-04-10T01:07:29;5.50;99.90
3186;DHT22;1604;53.700;10.252;2023-04-10T01:10:40;5.50;99.90
3186;DHT22;1604;53.700;10.252;2023-04-10T01:13:49;5.50;99.90
3186;DHT22;1604;53.700;10.252;2023-04-10T01:16:55;5.50;99.90
3186;DHT22;1604;53.700;10.252;2023-04-10T01:20:03;5.60;99.90
3186;DHT22;1604;53.700;10.252;2023-04-10T01:23:25;5.60;99.90
3186;DHT22;1604;53.700;10.252;2023-04-10T01:26:46;5.60;99.90
3186;DHT22;1604;53.700;10.252;2023-04-10T01:29:55;5.50;99.90
3186;DHT22;1604;53.700;10.252;2023-04-10T01:32:59;5.60;99.90
3186;DHT22;1604;53.700;10.252;2023-04-10T01:36:03;5.60;99.90
3186;DHT22;1604;53.700;10.252;2023-04-10T01:39:07;5.50;99.90
3186;DHT22;1604;53.700;10.252;2023-04-10T01:42:13;5.50;99.90
3186;DHT22;1604;53.700;10.252;2023-04-10T01:45:19;5.50;99.90
3186;DHT22;1604;53.700;10.252;2023-04-10T01:48:22;5.50;99.90
3186;DHT22;1604;53.700;10.252;2023-04-10T01:51:25;5.60;99.90
3186;DHT22;1604;53.700;10.252;2023-04-10T01:54:30;5.50;99.90
3186;DHT22;1604;53.700;10.252;2023-04-10T01:57:33;5.50;99.90
3186;DHT22;1604;53.700;10.252;2023-04-10T02:00:41;5.50;99.90
3186;DHT22;1604;53.700;10.252;2023-04-10T02:03:43;5.50;99.90
3186;DHT22;1604;53.700;10.252;2023-04-10T02:07:01;5.50;99.90
3186;DHT22;1604;53.700;10.252;2023-04-10T02:10:08;5.50;99.90
3186;DHT22;1604;53.700;10.252;2023-04-10T02:13:13;5.50;99.90
3186;DHT22;1604;53.700;10.252;2023-04-10T02:16:19;5.50;99.90
3186;DHT22;1604;53.700;10.252;2023-04-10T02:19:24;5.50;99.90
3186;DHT22;1604;53.700;10.252;2023-04-10T02:22:27;5.60;99.90
3186;DHT22;1604;53.700;10.252;2023-04-10T02:25:31;5.60;99.90
3186;DHT22;1604;53.700;10.252;2023-04-10T02:28:33;5.60;99.90
3186;DHT22;1604;53.700;10.252;2023-04-10T02:31:36;5.60;99.90
3186;DHT22;1604;53.700;10.252;2023-04-10T02:34:39;5.60;99.90
3186;DHT22;1604;53.700;10.252;2023-04-10T02:37:43;5.70;99.90
3186;DHT22;1604;53.700;10.252;2023-04-10T02:40:47;5.70;99.90
3186;DHT22;1604;53.700;10.252;2023-04-10T02:43:49;5.70;99.90
3186;DHT22;1604;53.700;10.252;2023-04-10T02:46:53;5.70;99.90
3186;DHT22;1604;53.700;10.252;2023-04-10T02:49:55;5.70;99.90
3186;DHT22;1604;53.700;10.252;2023-04-10T02:52:57;5.70;99.90
3186;DHT22;1604;53.700;10.252;2023-04-10T02:55:59;5.70;99.90
3186;DHT22;1604;53.700;10.252;2023-04-10T02:59:02;5.80;99.90
3186;DHT22;1604;53.700;10.252;2023-04-10T03:02:05;5.80;99.90
3186;DHT22;1604;53.700;10.252;2023-04-10T03:05:08;5.70;99.90
3186;DHT22;1604;53.700;10.252;2023-04-10T03:08:10;5.70;99.90
3186;DHT22;1604;53.700;10.252;2023-04-10T03:11:12;5.70;99.90
3186;DHT22;1604;53.700;10.252;2023-04-10T03:14:17;5.70;99.90
3186;DHT22;1604;53.700;10.252;2023-04-10T03:17:20;5.70;99.90
3186;DHT22;1604;53.700;10.252;2023-04-10T03:20:22;5.60;99.90
3186;DHT22;1604;53.700;10.252;2023-04-10T03:23:24;5.60;99.90
3186;DHT22;1604;53.700;10.252;2023-04-10T03:26:27;5.60;99.90
3186;DHT22;1604;53.700;10.252;2023-04-10T03:29:29;5.50;99.90
3186;DHT22;1604;53.700;10.252;2023-04-10T03:32:32;5.50;99.90
3186;DHT22;1604;53.700;10.252;2023-04-10T03:35:34;5.50;99.90
3186;DHT22;1604;53.700;10.252;2023-04-10T03:38:36;5.50;99.90
3186;DHT22;1604;53.700;10.252;2023-04-10T03:41:38;5.40;99.90
3186;DHT22;1604;53.700;10.252;2023-04-10T03:44:40;5.40;99.90
3186;DHT22;1604;53.700;10.252;2023-04-10T03:47:43;5.40;99.90
3186;DHT22;1604;53.700;10.252;2023-04-10T03:50:45;5.40;99.90
3186;DHT22;1604;53.700;10.252;2023-04-10T03:53:47;5.40;99.90
3186;DHT22;1604;53.700;10.252;2023-04-10T03:56:49;5.30;99.90
3186;DHT22;1604;53.700;10.252;2023-04-10T03:59:51;5.30;99.90
3186;DHT22;1604;53.700;10.252;2023-04-10T04:02:54;5.30;99.90
3186;DHT22;1604;53.700;10.252;2023-04-10T04:05:56;5.30;99.90
3186;DHT22;1604;53.700;10.252;2023-04-10T04:08:58;5.30;99.90
3186;DHT22;1604;53.700;10.252;2023-04-10T04:12:00;5.30;99.90
3186;DHT22;1604;53.700;10.252;2023-04-10T04:15:02;5.30;99.90
3186;DHT22;1604;53.700;10.252;2023-04-10T04:18:06;5.20;99.90
3186;DHT22;1604;53.700;10.252;2023-04-10T04:21:08;5.20;99.90
3186;DHT22;1604;53.700;10.252;2023-04-10T04:24:10;5.10;99.90
3186;DHT22;1604;53.700;10.252;2023-04-10T04:27:13;5.10;99.90
3186;DHT22;1604;53.700;10.252;2023-04-10T04:30:15;5.10;99.90
3186;DHT22;1604;53.700;10.252;2023-04-10T04:33:18;5.10;99.90
3186;DHT22;1604;53.700;10.252;2023-04-10T04:36:20;5.10;99.90
3186;DHT22;1604;53.700;10.252;2023-04-10T04:39:23;5.00;99.90
3186;DHT22;1604;53.700;10.252;2023-04-10T04:42:25;5.00;99.90
3186;DHT22;1604;53.700;10.252;2023-04-10T04:45:27;5.00;99.90
3186;DHT22;1604;53.700;10.252;2023-04-10T04:48:32;5.00;99.90
3186;DHT22;1604;53.700;10.252;2023-04-10T04:51:34;5.10;99.90
3186;DHT22;1604;53.700;10.252;2023-04-10T04:54:37;5.00;99.90
3186;DHT22;1604;53.700;10.252;2023-04-10T04:57:39;5.10;99.90
3186;DHT22;1604;53.700;10.252;2023-04-10T05:00:41;5.10;99.90
3186;DHT22;1604;53.700;10.252;2023-04-10T05:03:44;5.10;99.90
3186;DHT22;1604;53.700;10.252;2023-04-10T05:06:46;5.10;99.90
3186;DHT22;1604;53.700;10.252;2023-04-10T05:09:48;5.10;99.90
3186;DHT22;1604;53.700;10.252;2023-04-10T05:12:50;5.10;99.90
3186;DHT22;1604;53.700;10.252;2023-04-10T05:15:52;5.10;99.90
3186;DHT22;1604;53.700;10.252;2023-04-10T05:18:58;5.20;99.90
3186;DHT22;1604;53.700;10.252;2023-04-10T05:22:00;5.20;99.90
3186;DHT22;1604;53.700;10.252;2023-04-10T05:25:02;5.30;99.90
3186;DHT22;1604;53.700;10.252;2023-04-10T05:28:03;5.30;99.90
3186;DHT22;1604;53.700;10.252;2023-04-10T05:31:06;5.30;99.90
3186;DHT22;1604;53.700;10.252;2023-04-10T05:34:09;5.30;99.90
3186;DHT22;1604;53.700;10.252;2023-04-10T05:37:11;5.40;99.90
3186;DHT22;1604;53.700;10.252;2023-04-10T05:40:13;5.40;99.90
3186;DHT22;1604;53.700;10.252;2023-04-10T05:43:15;5.60;99.90
3186;DHT22;1604;53.700;10.252;2023-04-10T05:46:17;5.60;99.90
3186;DHT22;1604;53.700;10.252;2023-04-10T05:49:20;5.70;99.90
3186;DHT22;1604;53.700;10.252;2023-04-10T05:52:22;5.80;99.90
3186;DHT22;1604;53.700;10.252;2023-04-10T05:55:24;5.90;99.90
3186;DHT22;1604;53.700;10.252;2023-04-10T05:58:26;6.00;99.90
3186;DHT22;1604;53.700;10.252;2023-04-10T06:01:28;6.20;99.90
3186;DHT22;1604;53.700;10.252;2023-04-10T06:04:32;6.30;99.90
3186;DHT22;1604;53.700;10.252;2023-04-10T06:07:34;6.50;99.90
3186;DHT22;1604;53.700;10.252;2023-04-10T06:10:36;6.60;99.90
3186;DHT22;1604;53.700;10.252;2023-04-10T06:13:38;6.70;99.90
3186;DHT22;1604;53.700;10.252;2023-04-10T06:16:40;6.80;99.90
3186;DHT22;1604;53.700;10.252;2023-04-10T06:19:45;6.80;99.90
3186;DHT22;1604;53.700;10.252;2023-04-10T06:22:47;6.80;99.90
3186;DHT22;1604;53.700;10.252;2023-04-10T06:25:49;6.90;99.90
3186;DHT22;1604;53.700;10.252;2023-04-10T06:28:51;6.90;99.90
3186;DHT22;1604;53.700;10.252;2023-04-10T06:31:53;7.00;99.90
3186;DHT22;1604;53.700;10.252;2023-04-10T06:34:56;7.10;99.90
3186;DHT22;1604;53.700;10.252;2023-04-10T06:37:58;7.10;99.90
3186;DHT22;1604;53.700;10.252;2023-04-10T06:41:00;7.20;99.90
3186;DHT22;1604;53.700;10.252;2023-04-10T06:44:02;7.30;99.90
3186;DHT22;1604;53.700;10.252;2023-04-10T06:47:04;7.40;99.90
3186;DHT22;1604;53.700;10.252;2023-04-10T06:50:08;7.60;99.90
3186;DHT22;1604;53.700;10.252;2023-04-10T06:53:10;7.70;99.90
3186;DHT22;1604;53.700;10.252;2023-04-10T06:56:12;7.80;99.90
3186;DHT22;1604;53.700;10.252;2023-04-10T06:59:14;7.90;99.90
3186;DHT22;1604;53.700;10.252;2023-04-10T07:02:16;8.10;99.90
3186;DHT22;1604;53.700;10.252;2023-04-10T07:05:19;8.20;99.90
3186;DHT22;1604;53.700;10.252;2023-04-10T07:08:21;8.30;99.90
3186;DHT22;1604;53.700;10.252;2023-04-10T07:11:23;8.50;99.90
3186;DHT22;1604;53.700;10.252;2023-04-10T07:14:25;8.60;99.90
3186;DHT22;1604;53.700;10.252;2023-04-10T07:17:27;8.70;99.90
3186;DHT22;1604;53.700;10.252;2023-04-10T07:20:30;8.90;99.90
3186;DHT22;1604;53.700;10.252;2023-04-10T07:23:32;9.00;99.90
3186;DHT22;1604;53.700;10.252;2023-04-10T07:26:35;9.20;99.90
3186;DHT22;1604;53.700;10.252;2023-04-10T07:29:37;9.40;99.90
3186;DHT22;1604;53.700;10.252;2023-04-10T07:32:39;9.60;99.90
3186;DHT22;1604;53.700;10.252;2023-04-10T07:35:43;9.80;99.90
3186;DHT22;1604;53.700;10.252;2023-04-10T07:38:44;10.00;99.90
3186;DHT22;1604;53.700;10.252;2023-04-10T07:41:47;10.20;99.90
3186;DHT22;1604;53.700;10.252;2023-04-10T07:44:48;10.30;99.90
3186;DHT22;1604;53.700;10.252;2023-04-10T07:47:51;10.50;99.90
3186;DHT22;1604;53.700;10.252;2023-04-10T07:50:54;10.70;99.90
3186;DHT22;1604;53.700;10.252;2023-04-10T07:53:56;10.90;99.40
3186;DHT22;1604;53.700;10.252;2023-04-10T07:56:58;11.00;99.20
3186;DHT22;1604;53.700;10.252;2023-04-10T08:00:00;11.20;98.50
3186;DHT22;1604;53.700;10.252;2023-04-10T08:03:03;11.40;98.10
3186;DHT22;1604;53.700;10.252;2023-04-10T08:06:07;11.70;97.70
3186;DHT22;1604;53.700;10.252;2023-04-10T08:09:10;12.00;96.90
3186;DHT22;1604;53.700;10.252;2023-04-10T08:12:12;12.20;95.60
3186;DHT22;1604;53.700;10.252;2023-04-10T08:15:14;12.40;95.60
3186;DHT22;1604;53.700;10.252;2023-04-10T08:18:15;12.80;93.20
3186;DHT22;1604;53.700;10.252;2023-04-10T08:21:19;13.00;92.70
3186;DHT22;1604;53.700;10.252;2023-04-10T08:24:21;13.30;91.80
3186;DHT22;1604;53.700;10.252;2023-04-10T08:27:23;13.50;89.40
3186;DHT22;1604;53.700;10.252;2023-04-10T08:30:25;13.70;88.80
3186;DHT22;1604;53.700;10.252;2023-04-10T08:33:27;13.90;87.10
3186;DHT22;1604;53.700;10.252;2023-04-10T08:36:31;14.10;86.80
3186;DHT22;1604;53.700;10.252;2023-04-10T08:39:34;14.20;85.10
3186;DHT22;1604;53.700;10.252;2023-04-10T08:42:36;14.40;83.30
3186;DHT22;1604;53.700;10.252;2023-04-10T08:45:40;14.70;83.20
3186;DHT22;1604;53.700;10.252;2023-04-10T08:48:46;14.90;80.00
3186;DHT22;1604;53.700;10.252;2023-04-10T08:51:55;15.00;78.60
3186;DHT22;1604;53.700;10.252;2023-04-10T08:54:59;15.10;78.30
3186;DHT22;1604;53.700;10.252;2023-04-10T08:58:03;15.10;79.20
3186;DHT22;1604;53.700;10.252;2023-04-10T09:01:06;15.20;79.60
3186;DHT22;1604;53.700;10.252;2023-04-10T09:04:10;15.40;76.90
3186;DHT22;1604;53.700;10.252;2023-04-10T09:07:13;15.50;78.00
3186;DHT22;1604;53.700;10.252;2023-04-10T09:10:15;15.60;76.40
3186;DHT22;1604;53.700;10.252;2023-04-10T09:13:34;15.80;78.20
3186;DHT22;1604;53.700;10.252;2023-04-10T09:16:36;16.10;73.20
3186;DHT22;1604;53.700;10.252;2023-04-10T09:19:38;16.30;72.10
3186;DHT22;1604;53.700;10.252;2023-04-10T09:22:42;16.40;71.70
3186;DHT22;1604;53.700;10.252;2023-04-10T09:25:43;16.60;72.10
3186;DHT22;1604;53.700;10.252;2023-04-10T09:28:58;16.80;70.20
3186;DHT22;1604;53.700;10.252;2023-04-10T09:32:00;17.10;69.90
3186;DHT22;1604;53.700;10.252;2023-04-10T09:35:03;17.30;68.10
3186;DHT22;1604;53.700;10.252;2023-04-10T09:38:16;17.40;68.20
3186;DHT22;1604;53.700;10.252;2023-04-10T09:41:19;17.60;67.60
3186;DHT22;1604;53.700;10.252;2023-04-10T09:44:29;17.80;65.80
3186;DHT22;1604;53.700;10.252;2023-04-10T09:47:31;17.80;66.10
3186;DHT22;1604;53.700;10.252;2023-04-10T09:50:34;17.90;64.80
3186;DHT22;1604;53.700;10.252;2023-04-10T09:53:47;18.10;63.90
3186;DHT22;1604;53.700;10.252;2023-04-10T09:56:51;18.20;62.90
3186;DHT22;1604;53.700;10.252;2023-04-10T09:59:54;18.30;62.30
3186;DHT22;1604;53.700;10.252;2023-04-10T10:02:58;18.30;62.10
3186;DHT22;1604;53.700;10.252;2023-04-10T10:06:02;18.50;60.80
3186;DHT22;1604;53.700;10.252;2023-04-10T10:09:06;18.60;60.60
3186;DHT22;1604;53.700;10.252;2023-04-10T10:12:09;18.70;59.50
3186;DHT22;1604;53.700;10.252;2023-04-10T10:18:41;18.80;57.60
3186;DHT22;1604;53.700;10.252;2023-04-10T10:21:45;18.90;56.80
3186;DHT22;1604;53.700;10.252;2023-04-10T10:24:50;18.90;57.70
3186;DHT22;1604;53.700;10.252;2023-04-10T10:27:58;18.90;58.10
3186;DHT22;1604;53.700;10.252;2023-04-10T10:31:02;18.90;58.00
3186;DHT22;1604;53.700;10.252;2023-04-10T10:34:04;19.00;58.60
3186;DHT22;1604;53.700;10.252;2023-04-10T10:37:09;19.00;59.00
3186;DHT22;1604;53.700;10.252;2023-04-10T10:40:16;19.00;59.70
3186;DHT22;1604;53.700;10.252;2023-04-10T10:43:26;19.00;58.30
3186;DHT22;1604;53.700;10.252;2023-04-10T10:46:34;18.90;59.40
3186;DHT22;1604;53.700;10.252;2023-04-10T10:49:53;19.10;58.10
3186;DHT22;1604;53.700;10.252;2023-04-10T10:52:56;19.10;58.20
3186;DHT22;1604;53.700;10.252;2023-04-10T10:56:35;19.40;56.20
3186;DHT22;1604;53.700;10.252;2023-04-10T10:59:55;19.50;56.60
3186;DHT22;1604;53.700;10.252;2023-04-10T11:03:28;19.70;54.00
3186;DHT22;1604;53.700;10.252;2023-04-10T11:06:50;19.70;52.80
3186;DHT22;1604;53.700;10.252;2023-04-10T11:09:53;19.80;52.20
3186;DHT22;1604;53.700;10.252;2023-04-10T11:13:22;19.70;52.90
3186;DHT22;1604;53.700;10.252;2023-04-10T11:16:42;19.60;53.70
3186;DHT22;1604;53.700;10.252;2023-04-10T11:19:57;19.60;55.20
3186;DHT22;1604;53.700;10.252;2023-04-10T11:23:06;19.90;54.00
3186;DHT22;1604;53.700;10.252;2023-04-10T11:26:09;20.00;53.00
3186;DHT22;1604;53.700;10.252;2023-04-10T11:29:33;19.90;51.80
3186;DHT22;1604;53.700;10.252;2023-04-10T11:32:40;19.70;53.00
3186;DHT22;1604;53.700;10.252;2023-04-10T11:35:45;19.50;53.20
3186;DHT22;1604;53.700;10.252;2023-04-10T11:38:54;19.30;53.20
3186;DHT22;1604;53.700;10.252;2023-04-10T11:41:57;19.30;53.20
3186;DHT22;1604;53.700;10.252;2023-04-10T11:45:24;19.30;53.50
3186;DHT22;1604;53.700;10.252;2023-04-10T11:48:26;19.50;52.20
3186;DHT22;1604;53.700;10.252;2023-04-10T11:51:29;19.60;52.60
3186;DHT22;1604;53.700;10.252;2023-04-10T11:54:31;19.70;52.00
3186;DHT22;1604;53.700;10.252;2023-04-10T11:57:34;19.80;52.40
3186;DHT22;1604;53.700;10.252;2023-04-10T12:00:37;20.00;51.60
3186;DHT22;1604;53.700;10.252;2023-04-10T12:03:40;20.00;52.00
3186;DHT22;1604;53.700;10.252;2023-04-10T12:06:43;20.20;50.90
3186;DHT22;1604;53.700;10.252;2023-04-10T12:09:55;20.10;49.30
3186;DHT22;1604;53.700;10.252;2023-04-10T12:12:57;20.00;49.40
3186;DHT22;1604;53.700;10.252;2023-04-10T12:16:03;19.80;48.70
3186;DHT22;1604;53.700;10.252;2023-04-10T12:19:06;19.80;48.10
3186;DHT22;1604;53.700;10.252;2023-04-10T12:22:10;19.90;47.60
3186;DHT22;1604;53.700;10.252;2023-04-10T12:25:13;19.90;47.90
3186;DHT22;1604;53.700;10.252;2023-04-10T12:28:18;19.80;47.80
3186;DHT22;1604;53.700;10.252;2023-04-10T12:31:30;19.80;47.70
3186;DHT22;1604;53.700;10.252;2023-04-10T12:34:32;19.80;46.70
3186;DHT22;1604;53.700;10.252;2023-04-10T12:37:46;19.70;47.00
3186;DHT22;1604;53.700;10.252;2023-04-10T12:40:58;19.40;48.00
3186;DHT22;1604;53.700;10.252;2023-04-10T12:44:07;19.40;48.50
3186;DHT22;1604;53.700;10.252;2023-04-10T12:47:11;19.30;47.80
3186;DHT22;1604;53.700;10.252;2023-04-10T12:50:14;19.30;48.60
3186;DHT22;1604;53.700;10.252;2023-04-10T12:53:18;19.30;48.50
3186;DHT22;1604;53.700;10.252;2023-04-10T12:56:20;19.20;48.10
3186;DHT22;1604;53.700;10.252;2023-04-10T12:59:22;19.20;48.90
3186;DHT22;1604;53.700;10.252;2023-04-10T13:02:26;19.10;49.40
3186;DHT22;1604;53.700;10.252;2023-04-10T13:05:28;19.00;49.40
3186;DHT22;1604;53.700;10.252;2023-04-10T13:08:30;19.00;48.90
3186;DHT22;1604;53.700;10.252;2023-04-10T13:11:32;19.00;49.60
3186;DHT22;1604;53.700;10.252;2023-04-10T13:14:34;19.00;50.90
3186;DHT22;1604;53.700;10.252;2023-04-10T13:17:38;19.20;49.50
3186;DHT22;1604;53.700;10.252;2023-04-10T13:20:41;19.10;49.00
3186;DHT22;1604;53.700;10.252;2023-04-10T13:23:43;19.00;49.50
3186;DHT22;1604;53.700;10.252;2023-04-10T13:26:46;19.00;50.10
3186;DHT22;1604;53.700;10.252;2023-04-10T13:29:48;19.00;49.30
3186;DHT22;1604;53.700;10.252;2023-04-10T13:32:51;18.90;49.70
3186;DHT22;1604;53.700;10.252;2023-04-10T13:35:53;18.90;49.20
3186;DHT22;1604;53.700;10.252;2023-04-10T13:38:55;18.80;49.80
3186;DHT22;1604;53.700;10.252;2023-04-10T13:41:58;18.80;49.80
3186;DHT22;1604;53.700;10.252;2023-04-10T13:45:01;18.80;49.30
3186;DHT22;1604;53.700;10.252;2023-04-10T13:48:05;18.70;49.80
3186;DHT22;1604;53.700;10.252;2023-04-10T13:51:07;18.70;49.70
3186;DHT22;1604;53.700;10.252;2023-04-10T13:54:10;18.60;49.80
3186;DHT22;1604;53.700;10.252;2023-04-10T13:57:12;18.50;50.30
3186;DHT22;1604;53.700;10.252;2023-04-10T14:00:14;18.40;51.50
3186;DHT22;1604;53.700;10.252;2023-04-10T14:03:18;18.30;50.60
3186;DHT22;1604;53.700;10.252;2023-04-10T14:06:19;18.20;51.20
3186;DHT22;1604;53.700;10.252;2023-04-10T14:09:22;18.10;52.00
3186;DHT22;1604;53.700;10.252;2023-04-10T14:12:24;18.00;52.80
3186;DHT22;1604;53.700;10.252;2023-04-10T14:15:26;18.00;53.10
3186;DHT22;1604;53.700;10.252;2023-04-10T14:18:30;18.00;52.80
3186;DHT22;1604;53.700;10.252;2023-04-10T14:21:32;17.90;53.20
3186;DHT22;1604;53.700;10.252;2023-04-10T14:24:34;17.90;53.70
3186;DHT22;1604;53.700;10.252;2023-04-10T14:27:36;17.80;54.20
3186;DHT22;1604;53.700;10.252;2023-04-10T14:30:38;17.70;55.00
3186;DHT22;1604;53.700;10.252;2023-04-10T14:33:41;17.70;54.70
3186;DHT22;1604;53.700;10.252;2023-04-10T14:36:43;17.60;55.60
3186;DHT22;1604;53.700;10.252;2023-04-10T14:39:46;17.60;55.30
3186;DHT22;1604;53.700;10.252;2023-04-10T14:42:47;17.60;54.80
3186;DHT22;1604;53.700;10.252;2023-04-10T14:45:49;17.50;55.70
3186;DHT22;1604;53.700;10.252;2023-04-10T14:48:53;17.50;56.20
3186;DHT22;1604;53.700;10.252;2023-04-10T14:51:55;17.50;56.00
3186;DHT22;1604;53.700;10.252;2023-04-10T14:54:57;17.60;56.30
3186;DHT22;1604;53.700;10.252;2023-04-10T14:57:59;17.60;56.90
3186;DHT22;1604;53.700;10.252;2023-04-10T15:01:06;17.50;56.90
3186;DHT22;1604;53.700;10.252;2023-04-10T15:04:10;17.50;57.00
3186;DHT22;1604;53.700;10.252;2023-04-10T15:07:12;17.60;56.80
3186;DHT22;1604;53.700;10.252;2023-04-10T15:10:14;17.50;56.80
3186;DHT22;1604;53.700;10.252;2023-04-10T15:13:16;17.50;57.60
3186;DHT22;1604;53.700;10.252;2023-04-10T15:16:18;17.40;57.60
3186;DHT22;1604;53.700;10.252;2023-04-10T15:19:29;17.40;58.30
3186;DHT22;1604;53.700;10.252;2023-04-10T15:22:31;17.40;59.00
3186;DHT22;1604;53.700;10.252;2023-04-10T15:25:33;17.30;59.60
3186;DHT22;1604;53.700;10.252;2023-04-10T15:28:35;17.30;60.10
3186;DHT22;1604;53.700;10.252;2023-04-10T15:31:38;17.30;59.60
3186;DHT22;1604;53.700;10.252;2023-04-10T15:34:42;17.30;60.40
3186;DHT22;1604;53.700;10.252;2023-04-10T15:37:44;17.20;60.70
3186;DHT22;1604;53.700;10.252;2023-04-10T15:40:47;17.10;61.20
3186;DHT22;1604;53.700;10.252;2023-04-10T15:43:49;17.20;59.60
3186;DHT22;1604;53.700;10.252;2023-04-10T15:46:51;17.20;59.40
3186;DHT22;1604;53.700;10.252;2023-04-10T15:49:55;17.10;59.30
3186;DHT22;1604;53.700;10.252;2023-04-10T15:52:57;17.10;59.60
3186;DHT22;1604;53.700;10.252;2023-04-10T15:55:59;17.10;58.70
3186;DHT22;1604;53.700;10.252;2023-04-10T15:59:01;16.90;59.40
3186;DHT22;1604;53.700;10.252;2023-04-10T16:02:03;17.00;59.00
3186;DHT22;1604;53.700;10.252;2023-04-10T16:05:07;16.90;59.50
3186;DHT22;1604;53.700;10.252;2023-04-10T16:08:09;16.90;58.90
3186;DHT22;1604;53.700;10.252;2023-04-10T16:11:11;16.90;59.00
3186;DHT22;1604;53.700;10.252;2023-04-10T16:14:13;16.90;59.20
3186;DHT22;1604;53.700;10.252;2023-04-10T16:17:15;16.90;58.90
3186;DHT22;1604;53.700;10.252;2023-04-10T16:20:19;16.90;59.10
3186;DHT22;1604;53.700;10.252;2023-04-10T16:23:21;16.90;59.80
3186;DHT22;1604;53.700;10.252;2023-04-10T16:26:23;16.90;59.50
3186;DHT22;1604;53.700;10.252;2023-04-10T16:29:25;16.80;60.30
3186;DHT22;1604;53.700;10.252;2023-04-10T16:32:27;16.70;60.40
3186;DHT22;1604;53.700;10.252;2023-04-10T16:35:30;16.60;60.80
3186;DHT22;1604;53.700;10.252;2023-04-10T16:38:33;16.50;61.20
3186;DHT22;1604;53.700;10.252;2023-04-10T16:41:38;16.40;61.90
3186;DHT22;1604;53.700;10.252;2023-04-10T16:44:40;16.40;62.20
3186;DHT22;1604;53.700;10.252;2023-04-10T16:47:42;16.30;62.40
3186;DHT22;1604;53.700;10.252;2023-04-10T16:50:46;16.20;62.40
3186;DHT22;1604;53.700;10.252;2023-04-10T16:53:48;16.20;62.20
3186;DHT22;1604;53.700;10.252;2023-04-10T16:56:50;16.10;62.80
3186;DHT22;1604;53.700;10.252;2023-04-10T16:59:55;16.10;63.00
3186;DHT22;1604;53.700;10.252;2023-04-10T17:02:58;16.00;63.30
3186;DHT22;1604;53.700;10.252;2023-04-10T17:06:01;16.00;63.10
3186;DHT22;1604;53.700;10.252;2023-04-10T17:09:03;15.90;63.40
3186;DHT22;1604;53.700;10.252;2023-04-10T17:12:05;15.80;63.80
3186;DHT22;1604;53.700;10.252;2023-04-10T17:15:07;15.80;64.20
3186;DHT22;1604;53.700;10.252;2023-04-10T17:18:09;15.70;64.40
3186;DHT22;1604;53.700;10.252;2023-04-10T17:21:15;15.70;64.60
3186;DHT22;1604;53.700;10.252;2023-04-10T17:24:18;15.60;64.80
3186;DHT22;1604;53.700;10.252;2023-04-10T17:27:20;15.60;64.90
3186;DHT22;1604;53.700;10.252;2023-04-10T17:30:21;15.50;65.50
3186;DHT22;1604;53.700;10.252;2023-04-10T17:33:23;15.40;66.00
3186;DHT22;1604;53.700;10.252;2023-04-10T17:36:27;15.40;66.00
3186;DHT22;1604;53.700;10.252;2023-04-10T17:39:29;15.30;66.60
3186;DHT22;1604;53.700;10.252;2023-04-10T17:42:31;15.30;67.00
3186;DHT22;1604;53.700;10.252;2023-04-10T17:45:35;15.30;67.00
3186;DHT22;1604;53.700;10.252;2023-04-10T17:48:38;15.30;67.00
3186;DHT22;1604;53.700;10.252;2023-04-10T17:51:41;15.20;67.30
3186;DHT22;1604;53.700;10.252;2023-04-10T17:54:43;15.10;67.70
3186;DHT22;1604;53.700;10.252;2023-04-10T17:57:46;15.00;68.10
3186;DHT22;1604;53.700;10.252;2023-04-10T18:00:49;15.00;68.00
3186;DHT22;1604;53.700;10.252;2023-04-10T18:03:50;15.10;68.00
3186;DHT22;1604;53.700;10.252;2023-04-10T18:06:54;15.00;67.80
3186;DHT22;1604;53.700;10.252;2023-04-10T18:09:56;15.00;67.50
3186;DHT22;1604;53.700;10.252;2023-04-10T18:12:58;14.90;68.10
3186;DHT22;1604;53.700;10.252;2023-04-10T18:16:00;14.90;68.10
3186;DHT22;1604;53.700;10.252;2023-04-10T18:19:05;14.90;68.30
3186;DHT22;1604;53.700;10.252;2023-04-10T18:22:08;14.80;68.50
3186;DHT22;1604;53.700;10.252;2023-04-10T18:25:10;14.80;68.40
3186;DHT22;1604;53.700;10.252;2023-04-10T18:28:12;14.70;68.50
3186;DHT22;1604;53.700;10.252;2023-04-10T18:31:14;14.70;68.80
3186;DHT22;1604;53.700;10.252;2023-04-10T18:34:17;14.60;68.90
3186;DHT22;1604;53.700;10.252;2023-04-10T18:37:20;14.60;68.90
3186;DHT22;1604;53.700;10.252;2023-04-10T18:40:22;14.60;69.00
3186;DHT22;1604;53.700;10.252;2023-04-10T18:43:25;14.60;68.90
3186;DHT22;1604;53.700;10.252;2023-04-10T18:46:27;14.60;68.80
3186;DHT22;1604;53.700;10.252;2023-04-10T18:49:30;14.60;68.60
3186;DHT22;1604;53.700;10.252;2023-04-10T18:52:35;14.60;68.90
3186;DHT22;1604;53.700;10.252;2023-04-10T18:55:37;14.50;68.90
3186;DHT22;1604;53.700;10.252;2023-04-10T18:58:40;14.50;69.30
3186;DHT22;1604;53.700;10.252;2023-04-10T19:01:41;14.40;69.20
3186;DHT22;1604;53.700;10.252;2023-04-10T19:04:44;14.40;69.30
3186;DHT22;1604;53.700;10.252;2023-04-10T19:07:47;14.40;69.50
3186;DHT22;1604;53.700;10.252;2023-04-10T19:10:49;14.40;69.10
3186;DHT22;1604;53.700;10.252;2023-04-10T19:13:51;14.40;69.20
3186;DHT22;1604;53.700;10.252;2023-04-10T19:16:53;14.40;69.40
3186;DHT22;1604;53.700;10.252;2023-04-10T19:19:55;14.30;69.60
3186;DHT22;1604;53.700;10.252;2023-04-10T19:22:59;14.30;70.30
3186;DHT22;1604;53.700;10.252;2023-04-10T19:26:01;14.30;69.20
3186;DHT22;1604;53.700;10.252;2023-04-10T19:29:03;14.30;69.30
3186;DHT22;1604;53.700;10.252;2023-04-10T19:32:06;14.30;69.60
3186;DHT22;1604;53.700;10.252;2023-04-10T19:35:11;14.30;69.60
3186;DHT22;1604;53.700;10.252;2023-04-10T19:38:17;14.20;69.70
3186;DHT22;1604;53.700;10.252;2023-04-10T19:41:19;14.20;69.90
3186;DHT22;1604;53.700;10.252;2023-04-10T19:44:21;14.20;69.80
3186;DHT22;1604;53.700;10.252;2023-04-10T19:47:23;14.20;70.10
3186;DHT22;1604;53.700;10.252;2023-04-10T19:50:27;14.20;70.10